createdAt,value
2023-03-30T00:01:02.226Z,28.00
2023-03-30T00:03:29.542Z,28.30
2023-03-30T00:05:57.048Z,27.40
2023-03-30T00:08:27.977Z,26.20
2023-03-30T00:11:05.642Z,26.13
2023-03-30T00:13:34.886Z,12.43
2023-03-30T00:16:02.384Z,8.57
2023-03-30T00:18:31.977Z,8.37
2023-03-30T00:20:58.767Z,6.70
2023-03-30T00:23:27.007Z,5.77
2023-03-30T00:25:54.195Z,5.27
2023-03-30T00:28:21.240Z,4.53
2023-03-30T00:30:49.045Z,3.97
2023-03-30T00:33:16.056Z,4.23
2023-03-30T00:35:42.786Z,4.70
2023-03-30T00:38:09.542Z,4.53
2023-03-30T00:40:36.674Z,4.40
2023-03-30T00:43:09.153Z,4.60
2023-03-30T00:45:37.294Z,4.80
2023-03-30T00:48:22.097Z,4.53
2023-03-30T00:50:54.007Z,4.00
2023-03-30T00:53:25.415Z,4.53
2023-03-30T00:55:54.158Z,3.80
2023-03-30T00:58:22.635Z,4.20
2023-03-30T01:00:49.983Z,4.10
2023-03-30T01:03:23.363Z,4.53
2023-03-30T01:05:52.167Z,4.53
2023-03-30T01:08:20.396Z,4.37
2023-03-30T01:10:48.075Z,4.30
2023-03-30T01:13:15.324Z,4.00
2023-03-30T01:16:13.305Z,3.87
2023-03-30T01:18:54.657Z,3.57
2023-03-30T01:21:23.931Z,4.43
2023-03-30T01:24:42.777Z,4.00
2023-03-30T01:27:45.988Z,4.13
2023-03-30T01:30:37.424Z,3.90
2023-03-30T01:33:19.256Z,4.00
2023-03-30T01:36:17.887Z,4.20
2023-03-30T01:38:44.644Z,3.77
2023-03-30T01:41:33.998Z,4.17
2023-03-30T01:44:25.195Z,3.57
2023-03-30T01:47:14.676Z,4.20
2023-03-30T01:50:01.745Z,4.13
2023-03-30T01:52:53.775Z,3.93
2023-03-30T01:55:27.238Z,4.07
2023-03-30T01:58:02.114Z,3.90
2023-03-30T02:00:29.828Z,3.63
2023-03-30T02:03:02.647Z,3.70
2023-03-30T02:05:32.791Z,3.60
2023-03-30T02:08:06.747Z,4.27
2023-03-30T02:10:35.709Z,3.80
2023-03-30T02:13:04.696Z,3.57
2023-03-30T02:15:39.694Z,3.50
2023-03-30T02:18:06.537Z,3.50
2023-03-30T02:20:34.821Z,4.17
2023-03-30T02:23:03.570Z,4.20
2023-03-30T02:25:30.265Z,4.07
2023-03-30T02:27:57.141Z,4.50
2023-03-30T02:30:24.020Z,4.50
2023-03-30T02:32:54.983Z,3.90
2023-03-30T02:35:24.436Z,4.90
2023-03-30T02:38:14.362Z,4.63
2023-03-30T02:40:56.143Z,4.70
2023-03-30T02:43:23.253Z,4.53
2023-03-30T02:45:58.256Z,4.37
2023-03-30T02:48:27.824Z,4.57
2023-03-30T02:51:12.472Z,5.00
2023-03-30T02:53:48.148Z,4.43
2023-03-30T02:56:14.782Z,4.87
2023-03-30T02:58:49.425Z,4.77
2023-03-30T03:01:34.134Z,4.97
2023-03-30T03:04:03.253Z,5.40
2023-03-30T03:06:32.266Z,6.10
2023-03-30T03:08:59.825Z,5.63
2023-03-30T03:11:27.148Z,5.83
2023-03-30T03:13:53.894Z,5.60
2023-03-30T03:16:20.744Z,6.47
2023-03-30T03:18:47.539Z,6.13
2023-03-30T03:21:14.467Z,6.10
2023-03-30T03:23:41.625Z,5.97
2023-03-30T03:26:09.589Z,5.67
2023-03-30T03:28:36.279Z,6.10
2023-03-30T03:31:04.038Z,7.00
2023-03-30T03:33:33.991Z,6.83
2023-03-30T03:36:01.009Z,7.03
2023-03-30T03:38:28.763Z,7.03
2023-03-30T03:40:58.214Z,6.23
2023-03-30T03:43:26.058Z,5.43
2023-03-30T03:45:53.647Z,5.90
2023-03-30T03:48:22.794Z,6.80
2023-03-30T03:50:51.679Z,5.60
2023-03-30T03:53:18.561Z,5.50
2023-03-30T03:55:46.722Z,4.80
2023-03-30T03:58:14.840Z,4.97
2023-03-30T04:00:41.775Z,4.90
2023-03-30T04:03:09.096Z,5.43
2023-03-30T04:05:36.415Z,4.93
2023-03-30T04:08:03.420Z,4.37
2023-03-30T04:10:30.534Z,4.30
2023-03-30T04:12:58.183Z,4.97
2023-03-30T04:15:25.449Z,5.10
2023-03-30T04:17:58.081Z,4.57
2023-03-30T04:20:29.406Z,4.67
2023-03-30T04:22:56.976Z,3.97
2023-03-30T04:25:28.986Z,4.50
2023-03-30T04:27:57.086Z,4.60
2023-03-30T04:30:24.461Z,4.20
2023-03-30T04:33:03.905Z,4.40
2023-03-30T04:35:32.439Z,4.70
2023-03-30T04:38:00.089Z,4.87
2023-03-30T04:40:26.927Z,4.57
2023-03-30T04:42:54.201Z,4.70
2023-03-30T04:45:21.054Z,4.70
2023-03-30T04:47:47.931Z,4.67
2023-03-30T04:50:14.807Z,4.07
2023-03-30T04:52:41.573Z,4.80
2023-03-30T04:55:09.896Z,4.20
2023-03-30T04:57:36.678Z,4.27
2023-03-30T05:00:07.874Z,4.60
2023-03-30T05:02:34.811Z,5.33
2023-03-30T05:05:01.911Z,4.60
2023-03-30T05:07:28.654Z,4.83
2023-03-30T05:09:55.743Z,4.37
2023-03-30T05:12:22.479Z,5.60
2023-03-30T05:14:49.208Z,5.50
2023-03-30T05:17:16.121Z,4.20
2023-03-30T05:19:42.887Z,3.50
2023-03-30T05:22:09.687Z,3.80
2023-03-30T05:24:36.410Z,3.77
2023-03-30T05:27:05.038Z,3.47
2023-03-30T05:29:31.957Z,3.37
2023-03-30T05:31:59.122Z,3.60
2023-03-30T05:34:26.088Z,3.83
2023-03-30T05:36:53.146Z,3.77
2023-03-30T05:39:20.273Z,3.30
2023-03-30T05:41:46.948Z,3.40
2023-03-30T05:44:13.716Z,3.10
2023-03-30T05:46:40.542Z,3.30
2023-03-30T05:49:07.262Z,3.83
2023-03-30T05:51:34.377Z,3.47
2023-03-30T05:54:01.475Z,3.00
2023-03-30T05:56:28.264Z,3.43
2023-03-30T05:58:55.038Z,3.00
2023-03-30T06:01:21.882Z,3.60
2023-03-30T06:03:48.902Z,3.70
2023-03-30T06:06:16.505Z,3.83
2023-03-30T06:08:43.312Z,4.30
2023-03-30T06:11:11.263Z,3.97
2023-03-30T06:13:37.978Z,4.03
2023-03-30T06:16:04.916Z,3.70
2023-03-30T06:18:31.642Z,3.83
2023-03-30T06:20:58.390Z,4.20
2023-03-30T06:23:25.070Z,3.50
2023-03-30T06:25:55.518Z,3.77
2023-03-30T06:28:25.379Z,3.97
2023-03-30T06:30:52.160Z,4.33
2023-03-30T06:33:19.244Z,3.80
2023-03-30T06:35:51.129Z,3.57
2023-03-30T06:38:19.209Z,3.10
2023-03-30T06:40:45.970Z,3.30
2023-03-30T06:43:21.049Z,2.90
2023-03-30T06:45:52.657Z,2.80
2023-03-30T06:48:20.538Z,2.53
2023-03-30T06:50:47.530Z,2.90
2023-03-30T06:53:14.271Z,3.07
2023-03-30T06:55:42.599Z,3.20
2023-03-30T06:58:09.821Z,3.60
2023-03-30T07:00:37.218Z,3.20
2023-03-30T07:03:04.206Z,2.73
2023-03-30T07:05:31.210Z,3.30
2023-03-30T07:07:58.300Z,3.00
2023-03-30T07:10:25.782Z,3.13
2023-03-30T07:12:52.614Z,3.00
2023-03-30T07:15:19.392Z,2.90
2023-03-30T07:17:46.266Z,3.10
2023-03-30T07:20:15.641Z,2.90
2023-03-30T07:22:42.647Z,3.13
2023-03-30T07:25:10.899Z,6.70
2023-03-30T07:27:38.103Z,3.03
2023-03-30T07:30:17.987Z,3.10
2023-03-30T07:32:50.437Z,3.40
2023-03-30T07:35:17.491Z,3.80
2023-03-30T07:37:44.348Z,3.13
2023-03-30T07:40:11.933Z,3.10
2023-03-30T07:42:38.777Z,2.90
2023-03-30T07:45:05.995Z,3.30
2023-03-30T07:47:32.770Z,3.27
2023-03-30T07:49:59.476Z,3.90
2023-03-30T07:52:26.385Z,3.10
2023-03-30T07:54:54.790Z,3.30
2023-03-30T07:57:22.722Z,3.37
2023-03-30T07:59:49.668Z,3.30
2023-03-30T08:02:17.433Z,3.10
2023-03-30T08:04:44.707Z,3.00
2023-03-30T08:07:12.144Z,3.93
2023-03-30T08:09:38.906Z,3.30
2023-03-30T08:12:06.828Z,3.87
2023-03-30T08:14:33.590Z,3.40
2023-03-30T08:17:00.623Z,3.63
2023-03-30T08:19:28.591Z,3.30
2023-03-30T08:21:57.003Z,3.50
2023-03-30T08:24:23.938Z,3.80
2023-03-30T08:26:50.972Z,3.37
2023-03-30T08:29:18.788Z,3.50
2023-03-30T08:31:45.785Z,3.60
2023-03-30T08:34:12.847Z,3.57
2023-03-30T08:36:39.661Z,3.67
2023-03-30T08:39:06.509Z,3.53
2023-03-30T08:42:06.856Z,3.90
2023-03-30T08:44:35.318Z,3.10
2023-03-30T08:47:05.528Z,3.53
2023-03-30T08:49:53.257Z,3.27
2023-03-30T08:52:24.111Z,3.10
2023-03-30T08:54:52.132Z,2.97
2023-03-30T08:57:51.849Z,3.30
2023-03-30T09:00:30.165Z,3.20
2023-03-30T09:03:17.259Z,3.03
2023-03-30T09:06:10.949Z,3.00
2023-03-30T09:08:38.433Z,3.23
2023-03-30T09:11:12.718Z,3.40
2023-03-30T09:13:41.581Z,2.70
2023-03-30T09:16:33.050Z,3.10
2023-03-30T09:19:03.137Z,3.20
2023-03-30T09:21:31.956Z,3.77
2023-03-30T09:24:00.969Z,3.53
2023-03-30T09:26:52.423Z,3.60
2023-03-30T09:29:26.269Z,3.60
2023-03-30T09:32:40.778Z,3.80
2023-03-30T09:35:15.531Z,4.77
2023-03-30T09:37:42.567Z,7.73
2023-03-30T09:40:34.331Z,4.40
2023-03-30T09:43:25.272Z,3.73
2023-03-30T09:45:52.519Z,3.93
2023-03-30T09:48:19.320Z,3.57
2023-03-30T09:50:46.841Z,4.30
2023-03-30T09:53:29.382Z,3.60
2023-03-30T09:56:07.165Z,3.30
2023-03-30T09:58:34.790Z,3.60
2023-03-30T10:01:14.392Z,3.77
2023-03-30T10:03:43.422Z,3.77
2023-03-30T10:06:16.730Z,3.70
2023-03-30T10:08:53.112Z,3.50
2023-03-30T10:11:22.843Z,3.80
2023-03-30T10:13:51.639Z,4.00
2023-03-30T10:16:29.552Z,3.40
2023-03-30T10:19:01.344Z,3.20
2023-03-30T10:21:36.845Z,2.73
2023-03-30T10:24:08.493Z,2.77
2023-03-30T10:26:37.350Z,3.57
2023-03-30T10:29:07.381Z,3.37
2023-03-30T10:31:36.907Z,3.33
2023-03-30T10:34:06.829Z,3.30
2023-03-30T10:36:38.432Z,3.00
2023-03-30T10:39:30.060Z,3.60
2023-03-30T10:42:00.068Z,3.20
2023-03-30T10:44:34.166Z,3.70
2023-03-30T10:47:22.727Z,2.70
2023-03-30T10:49:56.136Z,2.50
2023-03-30T10:52:36.616Z,3.07
2023-03-30T10:55:12.188Z,2.83
2023-03-30T10:58:14.134Z,3.17
2023-03-30T11:01:06.916Z,3.17
2023-03-30T11:03:36.445Z,3.60
2023-03-30T11:06:25.326Z,2.77
2023-03-30T11:08:54.592Z,3.20
2023-03-30T11:11:39.661Z,3.40
2023-03-30T11:14:26.865Z,3.10
2023-03-30T11:17:01.222Z,3.13
2023-03-30T11:19:43.853Z,2.67
2023-03-30T11:22:35.362Z,2.60
2023-03-30T11:25:09.501Z,3.03
2023-03-30T11:27:46.077Z,2.90
2023-03-30T11:30:29.298Z,2.20
2023-03-30T11:33:16.103Z,2.90
2023-03-30T11:36:00.442Z,2.60
2023-03-30T11:38:43.133Z,2.73
2023-03-30T11:41:28.601Z,2.77
2023-03-30T11:43:56.218Z,2.90
2023-03-30T11:46:53.813Z,2.43
2023-03-30T11:49:32.558Z,2.53
2023-03-30T11:52:17.352Z,2.20
2023-03-30T11:55:17.353Z,2.40
2023-03-30T11:58:06.937Z,2.73
2023-03-30T12:00:36.516Z,2.27
2023-03-30T12:03:21.369Z,2.70
2023-03-30T12:06:13.908Z,2.00
2023-03-30T12:09:02.017Z,2.13
2023-03-30T12:11:41.565Z,2.20
2023-03-30T12:14:32.530Z,2.37
2023-03-30T12:17:12.249Z,2.57
2023-03-30T12:19:56.143Z,2.63
2023-03-30T12:22:29.122Z,2.30
2023-03-30T12:25:15.650Z,3.47
2023-03-30T12:28:03.986Z,2.33
2023-03-30T12:30:43.895Z,2.93
2023-03-30T12:33:13.430Z,2.53
2023-03-30T12:35:51.991Z,2.40
2023-03-30T12:38:23.584Z,2.63
2023-03-30T12:41:14.582Z,2.60
2023-03-30T12:44:09.128Z,2.60
2023-03-30T12:46:54.081Z,3.03
2023-03-30T12:49:50.003Z,3.07
2023-03-30T12:52:43.408Z,3.60
2023-03-30T12:55:33.099Z,3.10
2023-03-30T12:58:21.024Z,2.53
2023-03-30T13:01:16.561Z,3.40
2023-03-30T13:03:54.250Z,2.93
2023-03-30T13:06:33.812Z,2.80
2023-03-30T13:09:04.327Z,3.37
2023-03-30T13:12:05.246Z,3.03
2023-03-30T13:14:39.276Z,3.20
2023-03-30T13:17:10.508Z,3.17
2023-03-30T13:19:37.354Z,3.13
2023-03-30T13:22:13.176Z,3.50
2023-03-30T13:24:41.140Z,3.43
2023-03-30T13:27:13.682Z,3.83
2023-03-30T13:29:58.396Z,4.37
2023-03-30T13:32:59.098Z,4.03
2023-03-30T13:35:41.697Z,3.40
2023-03-30T13:38:23.278Z,4.13
2023-03-30T13:41:14.859Z,3.70
2023-03-30T13:43:44.619Z,3.60
2023-03-30T13:46:38.321Z,4.00
2023-03-30T13:49:34.059Z,3.60
2023-03-30T13:52:10.416Z,3.00
2023-03-30T13:54:40.676Z,2.87
2023-03-30T13:57:11.750Z,3.23
2023-03-30T13:59:51.809Z,2.97
2023-03-30T14:02:21.060Z,3.33
2023-03-30T14:04:49.428Z,3.57
2023-03-30T14:07:16.994Z,3.40
2023-03-30T14:10:01.565Z,3.93
2023-03-30T14:12:28.421Z,4.37
2023-03-30T14:14:55.419Z,3.27
2023-03-30T14:17:24.296Z,3.77
2023-03-30T14:19:57.161Z,3.53
2023-03-30T14:22:28.135Z,3.20
2023-03-30T14:25:04.914Z,3.20
2023-03-30T14:27:38.871Z,2.50
2023-03-30T14:30:21.564Z,2.10
2023-03-30T14:32:51.403Z,2.63
2023-03-30T14:35:18.458Z,2.50
2023-03-30T14:37:51.676Z,2.30
2023-03-30T14:40:21.921Z,2.50
2023-03-30T14:42:48.886Z,2.70
2023-03-30T14:45:18.534Z,2.90
2023-03-30T14:47:47.778Z,3.17
2023-03-30T14:50:16.844Z,3.43
2023-03-30T14:52:46.639Z,3.07
2023-03-30T14:55:20.671Z,3.43
2023-03-30T14:57:48.726Z,5.00
2023-03-30T15:00:22.644Z,2.80
2023-03-30T15:02:56.790Z,3.17
2023-03-30T15:05:28.138Z,3.00
2023-03-30T15:07:55.178Z,3.07
2023-03-30T15:11:06.016Z,3.10
2023-03-30T15:13:33.277Z,3.80
2023-03-30T15:16:01.108Z,3.10
2023-03-30T15:18:30.385Z,2.87
2023-03-30T15:20:59.465Z,2.50
2023-03-30T15:23:38.082Z,3.53
2023-03-30T15:26:07.150Z,3.10
2023-03-30T15:28:46.802Z,2.93
2023-03-30T15:31:15.152Z,2.50
2023-03-30T15:33:50.470Z,2.83
2023-03-30T15:36:23.454Z,2.80
2023-03-30T15:38:56.477Z,2.43
2023-03-30T15:41:43.235Z,2.80
2023-03-30T15:44:12.439Z,2.87
2023-03-30T15:46:40.490Z,2.20
2023-03-30T15:49:09.452Z,3.30
2023-03-30T15:51:41.413Z,2.93
2023-03-30T15:54:38.488Z,2.73
2023-03-30T15:57:13.035Z,2.93
2023-03-30T15:59:48.861Z,2.70
2023-03-30T16:02:16.868Z,2.60
2023-03-30T16:04:43.807Z,2.40
2023-03-30T16:07:19.836Z,2.97
2023-03-30T16:09:46.877Z,2.60
2023-03-30T16:12:18.044Z,2.10
2023-03-30T16:14:44.833Z,2.70
2023-03-30T16:17:13.163Z,2.43
2023-03-30T16:19:41.254Z,2.73
2023-03-30T16:22:09.497Z,2.80
2023-03-30T16:24:36.841Z,2.90
2023-03-30T16:27:05.110Z,3.63
2023-03-30T16:29:32.943Z,3.30
2023-03-30T16:32:00.033Z,3.23
2023-03-30T16:34:26.889Z,3.30
2023-03-30T16:36:53.891Z,3.57
2023-03-30T16:39:26.598Z,3.57
2023-03-30T16:41:54.716Z,3.57
2023-03-30T16:44:23.099Z,3.80
2023-03-30T16:46:51.365Z,3.00
2023-03-30T16:49:24.568Z,3.93
2023-03-30T16:51:54.558Z,3.60
2023-03-30T16:54:32.006Z,3.80
2023-03-30T16:57:00.973Z,4.40
2023-03-30T16:59:30.557Z,3.10
2023-03-30T17:01:58.678Z,4.47
2023-03-30T17:04:25.965Z,4.03
2023-03-30T17:06:54.548Z,4.03
2023-03-30T17:09:21.798Z,3.93
2023-03-30T17:11:48.980Z,3.60
2023-03-30T17:14:16.337Z,4.30
2023-03-30T17:16:43.539Z,4.30
2023-03-30T17:19:14.193Z,4.13
2023-03-30T17:21:43.433Z,3.37
2023-03-30T17:24:11.340Z,3.90
2023-03-30T17:26:39.195Z,3.67
2023-03-30T17:29:06.105Z,5.03
2023-03-30T17:31:33.044Z,4.43
2023-03-30T17:33:59.967Z,3.37
2023-03-30T17:36:28.644Z,3.83
2023-03-30T17:38:55.518Z,3.83
2023-03-30T17:41:22.273Z,3.97
2023-03-30T17:43:49.272Z,4.40
2023-03-30T17:46:18.724Z,4.53
2023-03-30T17:48:46.104Z,4.33
2023-03-30T17:51:12.873Z,4.27
2023-03-30T17:53:39.722Z,4.60
2023-03-30T17:56:06.676Z,3.70
2023-03-30T17:58:35.874Z,3.53
2023-03-30T18:01:05.625Z,3.30
2023-03-30T18:03:32.588Z,3.60
2023-03-30T18:06:01.079Z,2.60
2023-03-30T18:08:28.976Z,2.43
2023-03-30T18:10:57.872Z,2.40
2023-03-30T18:13:26.614Z,2.50
2023-03-30T18:15:55.231Z,2.60
2023-03-30T18:18:25.964Z,2.90
2023-03-30T18:20:57.747Z,2.90
2023-03-30T18:23:25.130Z,2.57
2023-03-30T18:25:52.304Z,2.50
2023-03-30T18:28:24.176Z,3.33
2023-03-30T18:30:53.232Z,2.97
2023-03-30T18:33:20.399Z,3.37
2023-03-30T18:35:49.565Z,3.20
2023-03-30T18:38:24.755Z,4.07
2023-03-30T18:40:57.901Z,3.77
2023-03-30T18:43:26.568Z,4.43
2023-03-30T18:46:02.457Z,4.07
2023-03-30T18:48:29.655Z,4.30
2023-03-30T18:50:57.350Z,3.73
2023-03-30T18:53:27.073Z,3.90
2023-03-30T18:56:00.701Z,3.43
2023-03-30T18:58:30.049Z,4.00
2023-03-30T19:00:57.051Z,4.07
2023-03-30T19:03:25.218Z,4.40
2023-03-30T19:05:52.054Z,4.27
2023-03-30T19:08:24.017Z,4.17
2023-03-30T19:10:53.055Z,4.80
2023-03-30T19:13:21.706Z,4.27
2023-03-30T19:15:50.212Z,4.97
2023-03-30T19:18:17.856Z,4.83
2023-03-30T19:20:45.107Z,4.53
2023-03-30T19:23:14.193Z,3.80
2023-03-30T19:25:41.609Z,4.40
2023-03-30T19:28:09.227Z,4.43
2023-03-30T19:30:39.285Z,3.90
2023-03-30T19:33:09.730Z,4.90
2023-03-30T19:35:38.970Z,4.60
2023-03-30T19:38:05.954Z,5.00
2023-03-30T19:40:32.718Z,4.23
2023-03-30T19:42:59.403Z,5.27
2023-03-30T19:45:26.488Z,5.00
2023-03-30T19:47:53.323Z,4.30
2023-03-30T19:50:23.244Z,4.47
2023-03-30T19:52:51.013Z,5.40
2023-03-30T19:55:19.180Z,4.47
2023-03-30T19:57:46.068Z,5.10
2023-03-30T20:00:15.865Z,4.80
2023-03-30T20:02:48.379Z,5.10
2023-03-30T20:05:16.178Z,4.90
2023-03-30T20:07:44.409Z,4.67
2023-03-30T20:10:15.597Z,5.23
2023-03-30T20:12:42.790Z,5.00
2023-03-30T20:15:10.087Z,4.50
2023-03-30T20:17:38.324Z,4.53
2023-03-30T20:20:08.612Z,4.00
2023-03-30T20:22:36.716Z,4.27
2023-03-30T20:25:05.889Z,3.93
2023-03-30T20:27:33.728Z,4.40
2023-03-30T20:30:01.021Z,4.10
2023-03-30T20:32:27.974Z,4.33
2023-03-30T20:34:55.242Z,4.40
2023-03-30T20:37:22.011Z,5.07
2023-03-30T20:39:51.778Z,5.00
2023-03-30T20:42:25.831Z,4.87
2023-03-30T20:44:53.466Z,4.83
2023-03-30T20:47:23.250Z,5.13
2023-03-30T20:49:50.201Z,4.87
2023-03-30T20:52:17.154Z,5.07
2023-03-30T20:54:44.723Z,5.47
2023-03-30T20:57:12.018Z,5.80
2023-03-30T20:59:39.519Z,5.70
2023-03-30T21:02:07.005Z,5.67
2023-03-30T21:04:34.307Z,5.37
2023-03-30T21:07:01.453Z,4.90
2023-03-30T21:09:28.747Z,4.40
2023-03-30T21:11:55.489Z,5.13
2023-03-30T21:14:24.060Z,5.10
2023-03-30T21:16:50.955Z,3.80
2023-03-30T21:19:18.177Z,4.10
2023-03-30T21:21:44.955Z,4.23
2023-03-30T21:24:12.693Z,3.90
2023-03-30T21:26:40.375Z,5.30
2023-03-30T21:29:07.146Z,5.03
2023-03-30T21:31:33.932Z,4.33
2023-03-30T21:34:00.829Z,4.73
2023-03-30T21:36:27.672Z,5.27
2023-03-30T21:38:56.245Z,5.90
2023-03-30T21:41:24.234Z,5.43
2023-03-30T21:43:51.070Z,4.03
2023-03-30T21:46:20.915Z,3.60
2023-03-30T21:48:50.575Z,3.80
2023-03-30T21:51:25.809Z,3.63
2023-03-30T21:53:53.372Z,3.70
2023-03-30T21:56:23.036Z,3.53
2023-03-30T21:58:50.239Z,3.63
2023-03-30T22:01:17.963Z,3.60
2023-03-30T22:03:45.858Z,3.70
2023-03-30T22:06:14.514Z,3.50
2023-03-30T22:08:41.957Z,3.40
2023-03-30T22:11:12.758Z,3.47
2023-03-30T22:13:39.625Z,3.30
2023-03-30T22:16:16.321Z,3.33
2023-03-30T22:18:44.405Z,2.97
2023-03-30T22:21:25.759Z,3.03
2023-03-30T22:23:54.738Z,3.20
2023-03-30T22:26:22.281Z,4.10
2023-03-30T22:28:49.072Z,3.83
2023-03-30T22:31:15.871Z,4.03
2023-03-30T22:33:42.871Z,3.83
2023-03-30T22:36:18.893Z,4.50
2023-03-30T22:38:46.853Z,3.37
2023-03-30T22:41:14.140Z,4.23
2023-03-30T22:43:41.166Z,3.33
2023-03-30T22:46:08.171Z,3.60
2023-03-30T22:48:35.656Z,3.63
2023-03-30T22:51:08.178Z,3.30
2023-03-30T22:53:35.302Z,3.70
2023-03-30T22:56:02.082Z,3.23
2023-03-30T22:58:28.741Z,3.37
2023-03-30T23:01:02.581Z,3.73
2023-03-30T23:03:29.554Z,3.20
2023-03-30T23:06:00.811Z,3.10
2023-03-30T23:08:29.625Z,3.30
2023-03-30T23:10:57.349Z,3.10
2023-03-30T23:13:24.378Z,3.70
2023-03-30T23:15:51.125Z,3.10
2023-03-30T23:18:17.822Z,3.00
2023-03-30T23:20:46.648Z,3.30
2023-03-30T23:23:14.754Z,3.07
2023-03-30T23:25:51.402Z,3.17
2023-03-30T23:28:18.530Z,3.53
2023-03-30T23:30:45.411Z,3.20
2023-03-30T23:33:13.430Z,2.77
2023-03-30T23:35:41.852Z,3.00
2023-03-30T23:38:10.145Z,2.90
2023-03-30T23:40:36.874Z,2.70
2023-03-30T23:43:03.624Z,3.40
2023-03-30T23:45:30.406Z,2.63
2023-03-30T23:47:57.183Z,2.53
2023-03-30T23:50:23.932Z,2.97
2023-03-30T23:52:51.074Z,2.50
2023-03-30T23:55:18.479Z,2.80
2023-03-30T23:57:45.905Z,3.30
